Time;durP1;ratioP1;P1;durP2;ratioP2;P2;SDS_P1;SDS_P2;PMS_P1;PMS_P2;Temp;Humidity;BMP_temperature;BMP_pressure;BME280_temperature;BME280_humidity;BME280_pressure;Samples;Min_cycle;Max_cycle;Signal;HPM_P1;HPM_P2
2023/08/13 00:01:49;;;;;;;2.67;0.80;;;;;;;22.54;49.90;101686.47;16097610;19;131147;-62
2023/08/13 00:07:12;;;;;;;2.17;0.82;;;;;;;22.53;49.61;101680.06;16104727;19;130746;-62
2023/08/13 00:12:33;;;;;;;1.92;0.93;;;;;;;22.54;49.85;101680.88;16117137;19;131407;-62
2023/08/13 00:17:55;;;;;;;4.38;0.90;;;;;;;22.52;49.71;101672.78;16119487;19;130164;-62
2023/08/13 00:23:18;;;;;;;3.80;0.90;;;;;;;22.52;49.71;101663.59;16112380;19;129655;-63
2023/08/13 00:28:40;;;;;;;5.13;0.90;;;;;;;22.51;49.43;101667.47;16110202;19;130695;-63
2023/08/13 00:34:02;;;;;;;1.65;0.60;;;;;;;22.50;49.69;101654.63;16112464;19;132818;-62
2023/08/13 00:39:24;;;;;;;2.15;0.80;;;;;;;22.50;49.76;101661.03;16113906;19;129733;-64
2023/08/13 00:44:46;;;;;;;3.85;0.50;;;;;;;22.49;49.69;101656.56;16115170;19;131142;-63
2023/08/13 00:50:09;;;;;;;2.47;0.73;;;;;;;22.49;49.46;101659.34;16117246;19;129988;-63
2023/08/13 00:55:32;;;;;;;1.67;0.63;;;;;;;22.49;49.56;101658.50;16119550;19;129661;-63
2023/08/13 01:00:54;;;;;;;1.85;0.47;;;;;;;22.48;49.42;101663.22;16126363;19;129983;-63
2023/08/13 01:06:33;;;;;;;1.95;0.75;;;;;;;22.48;49.62;101666.03;16122608;19;130884;-63
2023/08/13 01:12:24;;;;;;;1.55;0.70;;;;;;;22.46;49.75;101665.47;16133396;19;129937;-64
2023/08/13 01:17:52;;;;;;;2.75;0.80;;;;;;;22.47;49.91;101666.28;16118448;19;129773;-64
2023/08/13 01:23:14;;;;;;;2.15;0.70;;;;;;;22.44;49.59;101665.69;16120953;19;129553;-63
2023/08/13 01:29:03;;;;;;;3.00;0.63;;;;;;;22.46;49.78;101675.75;16124092;19;130289;-63
2023/08/13 01:34:25;;;;;;;1.30;0.73;;;;;;;22.43;49.64;101664.00;16119299;19;130328;-63
2023/08/13 01:39:48;;;;;;;2.22;0.73;;;;;;;22.42;49.59;101656.72;16119860;19;131165;-63
2023/08/13 01:45:10;;;;;;;3.88;0.52;;;;;;;22.42;49.70;101656.72;16119198;19;130304;-63
2023/08/13 01:50:32;;;;;;;2.95;0.70;;;;;;;22.41;49.68;101655.03;16118092;19;129947;-63
2023/08/13 01:55:54;;;;;;;1.02;0.50;;;;;;;22.41;49.55;101649.47;16124272;19;130402;-63
2023/08/13 02:01:16;;;;;;;4.22;0.57;;;;;;;22.40;49.31;101647.78;16132711;19;130922;-63
2023/08/13 02:06:38;;;;;;;2.30;0.85;;;;;;;22.40;49.75;101642.19;16129803;19;130464;-63
2023/08/13 02:12:00;;;;;;;1.55;0.60;;;;;;;22.39;49.86;101639.69;16138755;19;130140;-63
2023/08/13 02:17:22;;;;;;;1.25;0.60;;;;;;;22.40;49.68;101635.78;16128117;19;130939;-64
2023/08/13 02:22:44;;;;;;;3.65;0.65;;;;;;;22.37;49.61;101639.94;16128695;19;130311;-63
2023/08/13 02:28:06;;;;;;;1.98;0.68;;;;;;;22.38;49.41;101629.63;16128434;19;130086;-64
2023/08/13 02:33:28;;;;;;;1.38;0.55;;;;;;;22.36;49.67;101635.47;16123716;19;129707;-65
2023/08/13 02:38:50;;;;;;;1.58;0.60;;;;;;;22.36;49.81;101634.59;16107730;19;130300;-64
2023/08/13 02:44:12;;;;;;;1.10;0.50;;;;;;;22.35;49.63;101633.78;16116475;19;130092;-63
2023/08/13 02:49:34;;;;;;;1.30;0.50;;;;;;;22.34;49.64;101634.88;16109434;19;129772;-64
2023/08/13 02:54:56;;;;;;;2.42;0.60;;;;;;;22.35;49.61;101624.56;16114708;19;131373;-64
2023/08/13 03:00:18;;;;;;;3.15;0.60;;;;;;;22.32;49.38;101620.34;16110818;19;129873;-65
2023/08/13 03:05:41;;;;;;;1.00;0.47;;;;;;;22.32;49.75;101614.75;16114722;19;130002;-64
2023/08/13 03:11:02;;;;;;;2.15;0.50;;;;;;;22.31;49.57;101604.72;16112397;19;129725;-64
2023/08/13 03:16:24;;;;;;;1.90;0.57;;;;;;;22.31;49.54;101613.06;16107911;19;129493;-63
2023/08/13 03:21:46;;;;;;;1.77;0.60;;;;;;;22.32;49.91;101614.75;16111451;19;131060;-63
2023/08/13 03:27:08;;;;;;;1.63;0.60;;;;;;;22.30;49.60;101619.75;16097163;19;132867;-63
2023/08/13 03:32:30;;;;;;;0.88;0.50;;;;;;;22.30;49.63;101616.13;16107971;19;131855;-63
2023/08/13 03:37:52;;;;;;;2.90;0.90;;;;;;;22.28;49.82;101617.22;16110025;19;130098;-63
2023/08/13 03:43:14;;;;;;;1.20;0.65;;;;;;;22.29;49.44;101620.84;16112414;19;130824;-63
2023/08/13 03:48:36;;;;;;;1.45;0.63;;;;;;;22.28;49.20;101627.50;16124869;19;129707;-64
2023/08/13 03:53:58;;;;;;;1.75;0.70;;;;;;;22.29;49.59;101629.19;16126138;19;130263;-63
2023/08/13 03:59:20;;;;;;;1.38;0.68;;;;;;;22.26;49.51;101622.19;16124895;19;129952;-65
2023/08/13 04:04:42;;;;;;;0.52;0.40;;;;;;;22.26;49.63;101619.41;16124685;19;130750;-63
2023/08/13 04:10:05;;;;;;;1.58;0.60;;;;;;;22.26;49.55;101630.56;16128261;19;129733;-69
2023/08/13 04:15:27;;;;;;;1.58;0.45;;;;;;;22.24;49.27;101631.94;16123614;19;129928;-68
2023/08/13 04:20:49;;;;;;;1.33;0.60;;;;;;;22.23;49.43;101631.06;16121747;19;131034;-70
2023/08/13 04:26:11;;;;;;;0.68;0.50;;;;;;;22.23;49.76;101627.44;16124046;19;130692;-69
2023/08/13 04:31:33;;;;;;;1.35;0.40;;;;;;;22.23;49.57;101633.03;16121854;19;131084;-64
2023/08/13 04:36:55;;;;;;;1.08;0.50;;;;;;;22.22;49.56;101629.38;16122037;19;129829;-64
2023/08/13 04:42:17;;;;;;;1.13;0.70;;;;;;;22.22;49.54;101634.13;16124591;19;130661;-63
2023/08/13 04:47:39;;;;;;;1.38;0.57;;;;;;;22.20;49.29;101630.69;16122821;19;130416;-63
2023/08/13 04:53:02;;;;;;;0.95;0.60;;;;;;;22.20;49.75;101630.69;16125609;19;132867;-64
2023/08/13 04:58:24;;;;;;;1.25;0.60;;;;;;;22.20;49.25;101625.13;16118825;19;131911;-63
2023/08/13 05:03:46;;;;;;;2.05;0.60;;;;;;;22.19;49.55;101626.22;16114468;19;130186;-63
2023/08/13 05:09:08;;;;;;;0.80;0.57;;;;;;;22.19;49.78;101623.44;16121690;19;130354;-62
2023/08/13 05:14:30;;;;;;;1.65;0.57;;;;;;;22.18;49.28;101627.31;16120805;19;130344;-63
2023/08/13 05:19:52;;;;;;;1.08;0.60;;;;;;;22.17;49.60;101634.84;16122188;19;130718;-62
2023/08/13 05:25:14;;;;;;;1.00;0.50;;;;;;;22.18;49.63;101628.19;16122472;19;129984;-63
2023/08/13 05:30:38;;;;;;;2.47;0.60;;;;;;;22.21;49.32;101632.44;16122355;19;130332;-63
2023/08/13 05:36:00;;;;;;;2.90;0.80;;;;;;;22.20;49.59;101637.13;16120014;19;129654;-67
2023/08/13 05:41:22;;;;;;;4.47;0.77;;;;;;;22.20;49.31;101639.06;16118602;19;130707;-65
2023/08/13 05:46:44;;;;;;;1.48;0.60;;;;;;;22.20;49.31;101637.13;16117179;19;131454;-65
2023/08/13 05:52:06;;;;;;;3.75;0.95;;;;;;;22.20;49.12;101639.06;16113587;19;132742;-66
2023/08/13 05:57:28;;;;;;;3.20;0.70;;;;;;;22.19;49.23;101634.59;16103959;19;131812;-65
2023/08/13 06:02:50;;;;;;;1.83;0.70;;;;;;;22.20;49.01;101637.13;16105496;19;130303;-56
2023/08/13 06:08:12;;;;;;;3.42;1.10;;;;;;;22.25;49.13;101639.19;16112095;19;130562;-58
2023/08/13 06:13:38;;;;;;;6.82;0.90;;;;;;;22.30;49.15;101642.03;16104642;19;131481;-61
2023/08/13 06:19:01;;;;;;;3.28;0.80;;;;;;;22.35;49.09;101644.06;16096910;19;132658;-61
2023/08/13 06:24:23;;;;;;;3.33;0.95;;;;;;;22.38;48.96;101633.28;16103947;19;131087;-63
2023/08/13 06:29:45;;;;;;;4.18;0.82;;;;;;;22.42;48.95;101631.66;16100774;19;131151;-63
2023/08/13 06:35:27;;;;;;;4.18;0.90;;;;;;;22.46;48.74;101633.94;16101529;19;131460;-59
2023/08/13 06:40:49;;;;;;;1.83;0.68;;;;;;;22.48;49.15;101634.53;16098677;19;131258;-65
2023/08/13 06:46:11;;;;;;;2.70;0.98;;;;;;;22.50;48.76;101640.69;16099595;19;131154;-62
2023/08/13 06:51:33;;;;;;;5.03;1.08;;;;;;;22.53;49.07;101640.16;16101199;19;130194;-64
2023/08/13 06:56:55;;;;;;;2.97;1.00;;;;;;;22.53;48.70;101635.44;16095352;19;130408;-58
2023/08/13 07:02:17;;;;;;;3.25;1.00;;;;;;;22.55;48.59;101640.75;16105085;19;130746;-59
2023/08/13 07:07:39;;;;;;;4.85;1.20;;;;;;;22.54;49.21;101639.06;16112214;19;130136;-59
2023/08/13 07:13:01;;;;;;;3.15;0.82;;;;;;;22.52;48.78;101638.50;16113017;19;130931;-59
2023/08/13 07:18:23;;;;;;;4.30;1.30;;;;;;;22.48;48.49;101632.56;16112223;19;130002;-61
2023/08/13 07:23:45;;;;;;;6.93;1.55;;;;;;;22.45;48.20;101630.31;16111005;19;130692;-61
2023/08/13 07:29:08;;;;;;;8.32;1.65;;;;;;;22.39;48.14;101623.81;16114472;19;131264;-61
2023/08/13 07:34:30;;;;;;;5.20;1.60;;;;;;;22.39;47.96;101629.38;16106165;19;131181;-61
2023/08/13 07:39:52;;;;;;;6.60;1.95;;;;;;;22.39;48.34;101628.53;16155036;19;131156;-62
2023/08/13 07:45:14;;;;;;;5.47;1.50;;;;;;;22.39;48.12;101632.19;16203471;19;130235;-62
2023/08/13 07:50:36;;;;;;;7.03;1.60;;;;;;;22.39;48.16;101621.03;16206941;19;129639;-61
2023/08/13 07:55:58;;;;;;;7.82;1.73;;;;;;;22.41;47.95;101626.34;16202007;19;128686;-61
2023/08/13 08:01:20;;;;;;;6.80;1.48;;;;;;;22.41;47.85;101627.16;16196971;19;130545;-60
2023/08/13 08:06:42;;;;;;;6.43;1.70;;;;;;;22.40;48.24;101627.44;16205239;19;131473;-60
2023/08/13 08:12:05;;;;;;;4.63;1.35;;;;;;;22.41;48.14;101624.38;16204038;19;130141;-62
2023/08/13 08:17:27;;;;;;;5.70;1.75;;;;;;;22.42;48.03;101626.06;16204674;19;129508;-62
2023/08/13 08:22:49;;;;;;;3.55;1.33;;;;;;;22.43;48.09;101624.97;16159954;19;129303;-62
2023/08/13 08:28:11;;;;;;;5.60;1.55;;;;;;;22.44;47.92;101621.09;16147003;19;130406;-62
2023/08/13 08:33:34;;;;;;;3.95;1.35;;;;;;;22.48;48.37;101610.25;16146476;19;131077;-61
2023/08/13 08:38:56;;;;;;;5.10;1.40;;;;;;;22.48;48.02;101609.44;16133577;19;129506;-60
2023/08/13 08:44:21;;;;;;;4.95;1.30;;;;;;;22.50;48.02;101607.22;16136487;19;129870;-62
2023/08/13 08:49:46;;;;;;;4.97;1.52;;;;;;;22.52;47.87;101608.66;16135908;19;129637;-60
2023/08/13 08:55:11;;;;;;;4.97;1.57;;;;;;;22.54;47.96;101602.81;16130193;19;129260;-62
2023/08/13 09:00:33;;;;;;;;;;;;;;;22.54;47.85;101602.81;16139938;19;130259;-62
2023/08/13 09:05:56;;;;;;;6.30;1.90;;;;;;;22.58;47.76;101592.84;16138882;19;129316;-61
2023/08/13 09:11:32;;;;;;;3.25;1.45;;;;;;;22.63;47.57;101587.34;16121602;19;130129;-62
2023/08/13 09:16:57;;;;;;;6.33;1.60;;;;;;;22.64;47.76;101586.25;16117400;19;129869;-62
2023/08/13 09:22:19;;;;;;;5.18;1.70;;;;;;;22.66;47.58;101584.03;16117941;19;134718;-62
2023/08/13 09:27:41;;;;;;;6.57;1.85;;;;;;;22.67;47.60;101579.31;16118864;19;130502;-62
2023/08/13 09:33:04;;;;;;;4.47;1.45;;;;;;;22.67;47.57;101580.13;16115991;19;129737;-62
2023/08/13 09:38:26;;;;;;;5.03;1.45;;;;;;;22.69;47.74;101572.34;16115730;19;129591;-62
2023/08/13 09:43:49;;;;;;;6.97;1.77;;;;;;;22.71;47.50;101574.88;16117654;19;129370;-62
2023/08/13 09:49:14;;;;;;;3.10;1.33;;;;;;;22.76;47.73;101565.75;16115852;19;129819;-62
2023/08/13 09:54:50;;;;;;;3.43;1.53;;;;;;;22.78;47.76;101564.38;16118090;19;130904;-62
2023/08/13 10:00:13;;;;;;;5.38;1.60;;;;;;;22.80;47.43;101552.97;16117523;19;130569;-62
2023/08/13 10:05:35;;;;;;;3.20;1.20;;;;;;;22.79;47.32;101549.34;16114851;19;129753;-62
2023/08/13 10:10:58;;;;;;;5.75;1.73;;;;;;;22.83;47.36;101549.66;16116864;19;131037;-61
2023/08/13 10:16:21;;;;;;;9.00;1.67;;;;;;;22.85;47.46;101541.88;16116359;19;129540;-62
2023/08/13 10:21:54;;;;;;;4.15;1.45;;;;;;;22.86;47.36;101538.81;16113922;19;134651;-62
2023/08/13 10:27:20;;;;;;;3.65;1.27;;;;;;;22.87;47.36;101534.09;16113354;19;130685;-61
2023/08/13 10:33:00;;;;;;;4.28;1.30;;;;;;;22.88;47.24;101530.19;16118658;19;131043;-62
2023/08/13 10:38:33;;;;;;;4.22;1.33;;;;;;;22.87;47.02;101525.72;16119970;19;129768;-62
2023/08/13 10:44:01;;;;;;;2.92;1.30;;;;;;;22.88;47.13;101519.03;16118367;19;129385;-61
2023/08/13 10:49:25;;;;;;;4.28;1.40;;;;;;;22.85;47.09;101517.59;16115741;19;130322;-62
2023/08/13 10:54:47;;;;;;;2.10;0.97;;;;;;;22.83;47.44;101516.19;16112613;19;130960;-62
2023/08/13 11:00:13;;;;;;;2.53;1.00;;;;;;;22.83;47.66;101511.44;16117661;19;129408;-62
2023/08/13 11:05:35;;;;;;;3.15;1.10;;;;;;;22.82;47.42;101506.13;16117500;19;130382;-62
2023/08/13 11:10:58;;;;;;;4.00;1.40;;;;;;;22.83;47.36;101507.81;16118673;19;130263;-62
2023/08/13 11:16:20;;;;;;;4.43;1.05;;;;;;;22.85;47.53;101513.97;16112843;19;129407;-61
2023/08/13 11:21:43;;;;;;;4.22;1.30;;;;;;;22.85;47.60;101497.25;16111003;19;133610;-62
2023/08/13 11:27:05;;;;;;;4.00;1.20;;;;;;;22.84;47.59;101484.38;16108901;19;130171;-62
2023/08/13 11:32:27;;;;;;;1.30;0.95;;;;;;;22.83;47.66;101483.53;16114785;19;130552;-62
2023/08/13 11:37:50;;;;;;;4.25;1.20;;;;;;;22.84;47.72;101489.97;16112847;19;130449;-61
2023/08/13 11:43:13;;;;;;;3.05;1.20;;;;;;;22.85;47.71;101483.28;16114771;19;129890;-62
2023/08/13 11:48:37;;;;;;;3.10;1.17;;;;;;;22.85;47.73;101480.50;16110608;19;129778;-61
2023/08/13 11:53:59;;;;;;;3.10;1.27;;;;;;;22.84;48.02;101478.81;16112066;19;129563;-61
2023/08/13 11:59:25;;;;;;;3.88;1.23;;;;;;;22.83;47.85;101477.94;16113147;19;131481;-62
2023/08/13 12:04:48;;;;;;;4.22;1.25;;;;;;;22.83;47.58;101482.69;16120153;19;129881;-60
2023/08/13 12:10:10;;;;;;;5.43;1.52;;;;;;;22.85;47.44;101481.31;16124034;19;130630;-61
2023/08/13 12:15:32;;;;;;;5.40;1.33;;;;;;;22.86;47.30;101476.59;16124107;19;129602;-60
2023/08/13 12:20:54;;;;;;;9.98;1.52;;;;;;;22.88;47.24;101468.81;16126327;19;129547;-61
2023/08/13 12:26:15;;;;;;;6.55;1.70;;;;;;;22.88;47.07;101466.03;16124823;19;130766;-62
2023/08/13 12:31:37;;;;;;;5.45;1.58;;;;;;;22.88;47.22;101464.06;16127547;19;129557;-61
2023/08/13 12:36:59;;;;;;;10.68;1.95;;;;;;;22.87;47.37;101453.19;16127335;19;130006;-61
2023/08/13 12:42:21;;;;;;;7.75;1.92;;;;;;;22.91;46.92;101462.72;16125266;19;130523;-60
2023/08/13 12:47:43;;;;;;;5.95;1.58;;;;;;;22.92;46.99;101447.66;16118797;19;131041;-60
2023/08/13 12:53:06;;;;;;;3.90;1.60;;;;;;;22.91;47.12;101457.16;16122272;19;129604;-61
2023/08/13 12:58:28;;;;;;;7.80;1.90;;;;;;;22.89;46.67;101449.03;16121803;19;129411;-60
2023/08/13 13:03:49;;;;;;;5.78;1.67;;;;;;;22.89;46.99;101448.19;16123421;19;129614;-61
2023/08/13 13:09:12;;;;;;;4.43;1.42;;;;;;;22.93;46.87;101462.47;16123020;19;129950;-61
2023/08/13 13:14:34;;;;;;;7.97;1.70;;;;;;;22.93;46.82;101463.31;16124653;19;129854;-62
2023/08/13 13:19:56;;;;;;;7.88;1.83;;;;;;;22.95;46.76;101457.50;16122798;19;129539;-60
2023/08/13 13:25:18;;;;;;;8.38;1.92;;;;;;;22.95;46.58;101452.75;16122900;19;130772;-60
2023/08/13 13:30:40;;;;;;;5.97;1.85;;;;;;;22.95;46.53;101447.16;16123841;19;129608;-61
2023/08/13 13:36:02;;;;;;;6.53;1.60;;;;;;;22.95;46.53;101447.16;16120088;19;133015;-61
2023/08/13 13:41:24;;;;;;;7.82;1.83;;;;;;;22.95;46.44;101447.16;16119852;19;129628;-60
2023/08/13 13:46:46;;;;;;;9.45;1.85;;;;;;;22.96;46.47;101443.25;16118511;19;129744;-60
2023/08/13 13:52:07;;;;;;;8.10;1.60;;;;;;;22.97;46.52;101447.75;16118212;19;129914;-60
2023/08/13 13:57:31;;;;;;;9.13;1.90;;;;;;;22.97;46.39;101433.78;16116926;19;130974;-62
2023/08/13 14:02:53;;;;;;;7.05;1.70;;;;;;;22.99;46.18;101437.16;16113834;19;129673;-61
2023/08/13 14:08:15;;;;;;;10.07;1.63;;;;;;;23.00;45.98;101422.09;16111531;19;129669;-59
2023/08/13 14:13:37;;;;;;;12.18;2.10;;;;;;;23.00;45.99;101421.25;16114329;19;131307;-60
2023/08/13 14:18:59;;;;;;;10.27;1.70;;;;;;;22.98;46.10;101441.06;16117769;19;129563;-59
2023/08/13 14:24:25;;;;;;;9.40;1.85;;;;;;;22.98;46.25;101449.44;16112811;19;129940;-61
2023/08/13 14:29:47;;;;;;;7.85;1.63;;;;;;;22.98;46.11;101440.19;16108176;19;130271;-60
2023/08/13 14:35:09;;;;;;;6.45;1.63;;;;;;;23.00;46.53;101447.22;16108300;19;129732;-50
2023/08/13 14:40:30;;;;;;;3.60;1.23;;;;;;;23.02;46.45;101442.19;16113715;19;130086;-59
2023/08/13 14:45:52;;;;;;;7.82;1.70;;;;;;;23.05;46.48;101441.66;16111749;19;130292;-60
2023/08/13 14:51:15;;;;;;;9.68;1.73;;;;;;;23.05;46.64;101444.47;16114237;19;129855;-60
2023/08/13 14:56:36;;;;;;;10.77;1.60;;;;;;;23.05;46.76;101446.41;16113014;19;129768;-59
2023/08/13 15:01:58;;;;;;;8.07;2.10;;;;;;;23.05;47.09;101444.47;16115040;19;129651;-60
2023/08/13 15:07:20;;;;;;;5.63;1.35;;;;;;;23.04;47.38;101442.78;16109272;19;131727;-58
2023/08/13 15:12:42;;;;;;;5.20;1.48;;;;;;;23.05;47.56;101452.84;16107542;19;130683;-59
2023/08/13 15:18:05;;;;;;;3.10;1.30;;;;;;;23.08;47.28;101450.63;16107325;19;130670;-59
2023/08/13 15:23:27;;;;;;;13.90;1.80;;;;;;;23.06;47.40;101453.69;16106076;19;129618;-60
2023/08/13 15:28:49;;;;;;;6.45;1.75;;;;;;;23.05;47.41;101452.00;16110829;19;129532;-59
2023/08/13 15:34:13;;;;;;;7.65;1.98;;;;;;;23.06;47.70;101453.69;16114103;19;130028;-60
2023/08/13 15:39:35;;;;;;;10.63;1.83;;;;;;;23.05;47.60;101450.03;16120135;19;129890;-60
2023/08/13 15:44:58;;;;;;;7.28;2.47;;;;;;;23.06;47.63;101456.47;16126287;19;130045;-60
2023/08/13 15:50:19;;;;;;;8.38;1.75;;;;;;;23.03;47.56;101455.03;16120341;19;130287;-60
2023/08/13 15:55:41;;;;;;;7.45;1.98;;;;;;;23.03;47.72;101448.63;16119440;19;129351;-60
2023/08/13 16:01:04;;;;;;;8.13;2.60;;;;;;;23.02;47.82;101446.94;16119812;19;129536;-60
2023/08/13 16:06:26;;;;;;;5.18;2.08;;;;;;;23.02;47.50;101452.53;16121712;19;130432;-60
2023/08/13 16:11:48;;;;;;;8.00;1.95;;;;;;;22.99;47.63;101453.91;16123095;19;130334;-58
2023/08/13 16:17:10;;;;;;;6.93;1.83;;;;;;;22.98;47.75;101457.78;16119183;19;129629;-60
2023/08/13 16:22:33;;;;;;;5.43;2.00;;;;;;;22.98;47.84;101454.16;16123638;19;130396;-60
2023/08/13 16:27:57;;;;;;;5.00;1.67;;;;;;;22.97;48.00;101447.75;16114911;19;130562;-60
2023/08/13 16:33:19;;;;;;;7.10;1.95;;;;;;;22.98;48.01;101451.34;16116798;19;129256;-60
2023/08/13 16:38:41;;;;;;;6.85;1.90;;;;;;;22.96;47.96;101434.03;16119013;19;129769;-60
2023/08/13 16:44:03;;;;;;;6.30;2.10;;;;;;;22.95;47.40;101447.16;16119285;19;130312;-60
2023/08/13 16:49:26;;;;;;;4.63;1.52;;;;;;;22.94;47.57;101442.69;16096310;19;130994;-62
2023/08/13 16:54:48;;;;;;;15.35;4.38;;;;;;;22.95;47.45;101440.75;16111727;19;130802;-60
2023/08/13 17:00:12;;;;;;;24.25;9.82;;;;;;;23.00;47.44;101444.44;16105922;19;129394;-60
2023/08/13 17:05:34;;;;;;;16.40;4.75;;;;;;;23.08;46.79;101436.66;16108719;19;129537;-60
2023/08/13 17:10:56;;;;;;;14.18;6.60;;;;;;;23.09;47.20;101430.81;16114545;19;129470;-60
2023/08/13 17:16:18;;;;;;;24.45;6.70;;;;;;;23.12;47.26;101429.47;16113420;19;129630;-59
2023/08/13 17:21:40;;;;;;;19.35;5.85;;;;;;;23.16;46.96;101437.03;16112425;19;131399;-59
2023/08/13 17:27:02;;;;;;;29.08;5.57;;;;;;;23.20;47.31;101429.78;16113331;19;133577;-59
2023/08/13 17:32:25;;;;;;;18.15;3.60;;;;;;;23.27;46.89;101425.97;16112819;19;130553;-59
2023/08/13 17:37:48;;;;;;;20.83;3.42;;;;;;;23.27;46.57;101421.19;16114783;19;130902;-60
2023/08/13 17:43:10;;;;;;;11.60;2.83;;;;;;;23.28;46.99;101422.88;16106107;19;130987;-59
2023/08/13 17:48:32;;;;;;;11.60;2.67;;;;;;;23.28;45.69;101422.88;16120069;19;130127;-60
2023/08/13 17:53:54;;;;;;;12.27;2.10;;;;;;;23.29;45.19;101435.75;16119346;19;130737;-61
2023/08/13 17:59:16;;;;;;;11.18;2.13;;;;;;;23.27;44.16;101432.38;16118831;19;129719;-58
2023/08/13 18:04:38;;;;;;;6.72;2.45;;;;;;;23.25;44.86;101434.63;16116635;19;129745;-59
2023/08/13 18:10:00;;;;;;;7.85;2.55;;;;;;;23.25;44.55;101439.34;16116465;19;129889;-60
2023/08/13 18:15:22;;;;;;;5.75;2.25;;;;;;;23.24;44.41;101444.09;16112840;19;134766;-52
2023/08/13 18:20:44;;;;;;;9.02;2.50;;;;;;;23.21;44.73;101450.19;16113760;19;129979;-55
2023/08/13 18:26:06;;;;;;;7.22;2.60;;;;;;;23.20;44.47;101451.31;16117753;19;129695;-59
2023/08/13 18:31:28;;;;;;;12.48;2.38;;;;;;;23.18;44.56;101456.31;16110622;19;129972;-57
2023/08/13 18:36:50;;;;;;;8.70;2.35;;;;;;;23.15;44.75;101454.88;16112377;19;129486;-52
2023/08/13 18:42:12;;;;;;;5.85;2.20;;;;;;;23.15;44.68;101463.25;16112499;19;130083;-55
2023/08/13 18:47:35;;;;;;;6.50;2.15;;;;;;;23.15;44.74;101462.41;16110942;19;130596;-55
2023/08/13 18:52:57;;;;;;;5.57;1.50;;;;;;;23.15;44.87;101460.47;16113298;19;129471;-59
2023/08/13 18:58:19;;;;;;;5.35;1.70;;;;;;;23.14;44.99;101461.56;16109134;19;129878;-55
2023/08/13 19:03:41;;;;;;;12.43;1.92;;;;;;;23.12;44.84;101471.31;16103437;19;129374;-58
2023/08/13 19:09:04;;;;;;;6.25;1.65;;;;;;;23.10;45.33;101473.53;16102382;19;131259;-59
2023/08/13 19:14:26;;;;;;;5.68;1.98;;;;;;;23.10;45.39;101479.13;16120999;19;131172;-57
2023/08/13 19:19:48;;;;;;;6.15;1.85;;;;;;;23.11;45.43;101480.81;16132680;19;131456;-57
2023/08/13 19:25:10;;;;;;;6.70;2.00;;;;;;;23.11;45.90;101489.19;16120601;19;131888;-54
2023/08/13 19:30:32;;;;;;;4.50;1.70;;;;;;;23.12;45.71;101493.66;16138063;19;131158;-58
2023/08/13 19:35:54;;;;;;;5.35;1.73;;;;;;;23.12;45.72;101505.66;16138313;19;129484;-61
2023/08/13 19:41:16;;;;;;;3.80;1.70;;;;;;;23.13;45.71;101509.31;16131409;19;129615;-60
2023/08/13 19:46:38;;;;;;;6.00;1.52;;;;;;;23.14;46.04;101517.41;16142627;19;130193;-55
2023/08/13 19:52:02;;;;;;;5.25;1.85;;;;;;;23.16;46.21;101519.91;16143461;19;130772;-56
2023/08/13 19:57:25;;;;;;;4.10;1.77;;;;;;;23.18;45.91;101517.69;16137312;19;131148;-53
2023/08/13 20:02:47;;;;;;;6.80;1.60;;;;;;;23.20;46.38;101523.88;16137877;19;130812;-62
2023/08/13 20:08:10;;;;;;;7.07;1.58;;;;;;;23.24;46.32;101516.66;16130351;19;130385;-61
2023/08/13 20:13:32;;;;;;;4.47;1.23;;;;;;;23.26;46.43;101516.38;16129156;19;130830;-47
2023/08/13 20:18:54;;;;;;;10.27;1.67;;;;;;;23.23;46.36;101526.16;16132736;19;130439;-61
2023/08/13 20:24:18;;;;;;;5.97;1.52;;;;;;;23.18;46.50;101528.88;16133775;19;130299;-61
2023/08/13 20:29:40;;;;;;;9.70;2.10;;;;;;;23.13;46.70;101531.63;16119050;19;130737;-63
2023/08/13 20:35:03;;;;;;;7.13;1.63;;;;;;;23.10;46.83;101526.56;16121319;19;132382;-61
2023/08/13 20:40:25;;;;;;;8.52;1.38;;;;;;;23.06;46.99;101523.47;16115940;19;130539;-60
2023/08/13 20:45:47;;;;;;;3.08;1.27;;;;;;;23.05;46.72;101524.56;16122797;19;130624;-62
2023/08/13 20:51:09;;;;;;;4.22;1.23;;;;;;;23.02;47.21;101523.13;16118848;19;130148;-61
2023/08/13 20:56:32;;;;;;;5.22;1.52;;;;;;;23.00;47.10;101516.13;16115806;19;130943;-62
2023/08/13 21:01:54;;;;;;;3.85;1.27;;;;;;;22.97;46.67;101511.91;16115950;19;129976;-63
2023/08/13 21:07:16;;;;;;;7.35;1.30;;;;;;;22.97;46.70;101516.63;16113463;19;129734;-60
2023/08/13 21:12:38;;;;;;;7.22;1.48;;;;;;;22.96;46.82;101514.94;16114697;19;130575;-65
2023/08/13 21:18:00;;;;;;;5.07;1.15;;;;;;;22.93;47.05;101510.75;16119175;19;130264;-62
2023/08/13 21:23:22;;;;;;;7.22;1.90;;;;;;;22.92;47.47;101514.63;16112064;19;133892;-64
2023/08/13 21:28:44;;;;;;;4.28;1.58;;;;;;;22.91;47.26;101518.53;16118064;19;130894;-63
2023/08/13 21:34:06;;;;;;;4.72;1.20;;;;;;;22.89;47.27;101521.56;16120585;19;129932;-63
2023/08/13 21:39:28;;;;;;;4.13;1.42;;;;;;;22.88;47.28;101524.63;16115957;19;129799;-62
2023/08/13 21:44:50;;;;;;;4.95;1.20;;;;;;;22.86;47.19;101524.03;16118224;19;130913;-68
2023/08/13 21:50:12;;;;;;;4.25;1.38;;;;;;;22.86;47.22;101532.41;16113805;19;129652;-58
2023/08/13 21:55:34;;;;;;;6.55;1.77;;;;;;;22.85;46.95;101525.97;16114381;19;130279;-67
2023/08/13 22:00:56;;;;;;;3.75;1.52;;;;;;;22.83;47.05;101533.75;16117729;19;130896;-64
2023/08/13 22:06:18;;;;;;;3.22;1.58;;;;;;;22.82;47.43;101543.25;16111268;19;130855;-66
2023/08/13 22:11:40;;;;;;;4.35;1.60;;;;;;;22.81;47.26;101546.28;16112664;19;129540;-69
2023/08/13 22:17:02;;;;;;;2.60;1.35;;;;;;;22.80;47.40;101548.22;16115185;19;135831;-66
2023/08/13 22:22:27;;;;;;;4.47;1.50;;;;;;;22.79;47.71;101560.50;16110464;19;130390;-64
2023/08/13 22:27:49;;;;;;;5.57;2.00;;;;;;;22.78;47.19;101550.44;16112546;19;130796;-62
2023/08/13 22:33:11;;;;;;;3.22;1.33;;;;;;;22.78;47.57;101557.94;16114277;19;131889;-68
2023/08/13 22:38:33;;;;;;;3.67;1.80;;;;;;;22.76;47.51;101557.38;16110930;19;130288;-61
2023/08/13 22:43:55;;;;;;;5.78;1.70;;;;;;;22.74;47.21;101550.13;16107846;19;130106;-60
2023/08/13 22:49:34;;;;;;;3.03;1.60;;;;;;;22.75;47.87;101553.75;16107137;19;131058;-67
2023/08/13 22:54:56;;;;;;;3.85;1.70;;;;;;;22.72;47.94;101562.63;16108284;19;131412;-60
2023/08/13 23:00:19;;;;;;;2.75;1.67;;;;;;;22.71;47.73;101561.78;16108975;19;129448;-60
2023/08/13 23:05:41;;;;;;;3.50;1.50;;;;;;;22.69;47.27;101555.63;16106760;19;131721;-60
2023/08/13 23:11:03;;;;;;;3.75;1.80;;;;;;;22.70;47.63;101556.47;16108594;19;131058;-60
2023/08/13 23:16:25;;;;;;;2.45;1.48;;;;;;;22.68;47.59;101548.34;16112349;19;131306;-60
2023/08/13 23:21:47;;;;;;;4.28;1.60;;;;;;;22.67;47.74;101552.25;16143322;19;131175;-60
2023/08/13 23:27:09;;;;;;;3.42;1.20;;;;;;;22.65;47.79;101546.06;16110289;19;131120;-59
2023/08/13 23:32:31;;;;;;;3.45;1.42;;;;;;;22.64;47.77;101547.19;16109817;19;129693;-60
2023/08/13 23:37:53;;;;;;;2.13;1.10;;;;;;;22.64;47.89;101541.63;16149185;19;129810;-59
2023/08/13 23:43:15;;;;;;;2.45;1.38;;;;;;;22.63;47.66;101539.94;16150108;19;131327;-60
2023/08/13 23:48:37;;;;;;;3.00;1.17;;;;;;;22.63;47.71;101527.91;16114168;19;134860;-60
2023/08/13 23:53:59;;;;;;;4.05;1.27;;;;;;;22.62;48.08;101527.09;16163078;19;130794;-60
2023/08/13 23:59:21;;;;;;;1.90;1.23;;;;;;;22.61;47.86;101527.34;16187501;19;128906;-59
